Time;durP1;ratioP1;P1;durP2;ratioP2;P2;SDS_P1;SDS_P2;PMS_P1;PMS_P2;Temp;Humidity;BMP_temperature;BMP_pressure;BME280_temperature;BME280_humidity;BME280_pressure;Samples;Min_cycle;Max_cycle;Signal;HPM_P1;HPM_P2
2022/05/12 00:04:56;;;;;;;6.32;1.88;;;;;;;13.17;100.00;101266.84;10378045;28;20049;-66
2022/05/12 00:09:59;;;;;;;7.28;1.75;;;;;;;13.03;100.00;101280.00;10378055;28;20053;-66
2022/05/12 00:15:03;;;;;;;7.13;2.53;;;;;;;13.09;100.00;101281.41;10377603;28;20156;-67
2022/05/12 00:20:07;;;;;;;6.88;1.77;;;;;;;12.74;100.00;101290.47;10377500;28;20132;-67
2022/05/12 00:25:12;;;;;;;5.20;1.92;;;;;;;12.87;100.00;101294.97;10377826;28;20050;-67
2022/05/12 00:30:15;;;;;;;2.90;1.20;;;;;;;12.77;100.00;101305.19;10376501;28;20517;-67
2022/05/12 00:35:18;;;;;;;6.32;1.70;;;;;;;12.48;100.00;101305.09;10376816;28;20049;-66
2022/05/12 00:40:21;;;;;;;4.18;1.17;;;;;;;12.36;100.00;101313.69;10376601;28;20401;-66
2022/05/12 00:45:24;;;;;;;4.35;2.20;;;;;;;12.63;100.00;101319.13;10376487;28;20046;-66
2022/05/12 00:50:30;;;;;;;5.85;2.20;;;;;;;12.50;100.00;101316.34;10375582;28;20050;-66
2022/05/12 00:55:35;;;;;;;7.35;2.33;;;;;;;12.41;100.00;101330.84;10357933;28;20481;-66
2022/05/12 01:00:39;;;;;;;7.85;1.90;;;;;;;12.01;100.00;101334.84;10375704;28;20409;-66
2022/05/12 01:05:42;;;;;;;5.63;1.17;;;;;;;12.54;100.00;101341.53;10374530;28;20481;-67
2022/05/12 01:10:55;;;;;;;6.03;1.50;;;;;;;12.02;100.00;101339.16;10374908;28;20413;-66
2022/05/12 01:16:02;;;;;;;7.88;1.77;;;;;;;12.17;100.00;101348.84;10343575;28;20096;-67
2022/05/12 01:21:06;;;;;;;7.18;1.40;;;;;;;12.23;100.00;101364.22;10374805;28;20046;-66
2022/05/12 01:26:13;;;;;;;4.40;1.60;;;;;;;12.28;100.00;101363.97;10374950;28;20046;-66
2022/05/12 01:31:17;;;;;;;3.88;1.48;;;;;;;12.23;100.00;101372.09;10374781;28;20077;-67
2022/05/12 01:36:20;;;;;;;2.83;1.48;;;;;;;11.69;100.00;101382.00;10371135;28;20485;-67
2022/05/12 01:41:23;;;;;;;5.50;1.90;;;;;;;11.83;100.00;101382.09;10374928;28;20050;-66
2022/05/12 01:46:25;;;;;;;5.68;1.80;;;;;;;11.66;100.00;101392.66;10345021;28;20505;-67
2022/05/12 01:51:28;;;;;;;5.53;2.22;;;;;;;11.69;100.00;101397.75;10334435;28;20058;-66
2022/05/12 01:56:30;;;;;;;7.22;2.60;;;;;;;11.69;100.00;101406.44;10333875;28;20062;-67
2022/05/12 02:01:33;;;;;;;5.53;2.67;;;;;;;11.51;100.00;101410.03;10333202;28;20050;-66
2022/05/12 02:06:36;;;;;;;5.25;2.13;;;;;;;11.61;100.00;101411.25;10333900;28;20050;-66
2022/05/12 02:11:38;;;;;;;5.97;2.42;;;;;;;11.71;100.00;101417.69;10354425;28;20056;-67
2022/05/12 02:16:41;;;;;;;5.78;2.80;;;;;;;11.92;100.00;101419.31;10375774;28;20050;-67
2022/05/12 02:21:43;;;;;;;8.55;2.10;;;;;;;11.83;100.00;101433.75;10382032;28;20050;-66
2022/05/12 02:26:45;;;;;;;8.80;2.70;;;;;;;11.40;100.00;101439.44;10381217;28;20485;-67
2022/05/12 02:31:48;;;;;;;5.18;2.33;;;;;;;11.85;100.00;101440.63;10380762;28;20054;-67
2022/05/12 02:37:02;;;;;;;5.60;2.72;;;;;;;11.69;100.00;101452.81;10379965;28;20596;-67
2022/05/12 02:42:06;;;;;;;12.10;3.10;;;;;;;12.26;100.00;101445.44;10381287;28;20049;-67
2022/05/12 02:47:09;;;;;;;5.88;2.20;;;;;;;11.92;100.00;101442.94;10363577;28;20046;-67
2022/05/12 02:52:11;;;;;;;7.03;2.78;;;;;;;12.18;100.00;101455.53;10380601;28;20057;-66
2022/05/12 02:57:14;;;;;;;9.27;3.58;;;;;;;11.47;100.00;101468.81;10380455;28;20046;-67
2022/05/12 03:02:16;;;;;;;8.65;2.67;;;;;;;12.01;100.00;101469.53;10380348;28;20058;-67
2022/05/12 03:07:19;;;;;;;7.25;3.00;;;;;;;12.27;100.00;101468.16;10380134;28;20050;-67
2022/05/12 03:12:21;;;;;;;7.50;3.67;;;;;;;11.99;100.00;101475.81;10379548;28;20058;-66
2022/05/12 03:17:23;;;;;;;7.07;3.53;;;;;;;11.86;100.00;101478.19;10379222;28;20049;-67
2022/05/12 03:22:26;;;;;;;7.28;2.83;;;;;;;11.79;100.00;101489.94;10379777;28;20081;-67
2022/05/12 03:27:28;;;;;;;6.43;3.03;;;;;;;11.61;100.00;101486.47;10378445;28;20042;-67
2022/05/12 03:32:30;;;;;;;8.98;3.15;;;;;;;12.15;100.00;101488.97;10378271;28;20497;-67
2022/05/12 03:37:33;;;;;;;4.90;2.60;;;;;;;11.79;100.00;101495.19;10378631;28;20083;-67
2022/05/12 03:42:36;;;;;;;9.05;2.95;;;;;;;11.78;100.00;101501.34;10378334;28;20524;-66
2022/05/12 03:47:39;;;;;;;6.82;2.55;;;;;;;11.98;100.00;101506.44;10378552;28;20133;-66
2022/05/12 03:52:42;;;;;;;6.78;3.65;;;;;;;11.42;100.00;101511.00;10377495;28;20497;-67
2022/05/12 03:57:45;;;;;;;9.32;3.20;;;;;;;11.75;100.00;101510.25;10378031;28;20482;-68
2022/05/12 04:02:47;;;;;;;5.72;2.90;;;;;;;11.70;100.00;101523.56;10377961;28;20049;-66
2022/05/12 04:07:51;;;;;;;7.18;2.55;;;;;;;12.03;100.00;101533.28;10377984;28;20041;-66
2022/05/12 04:12:55;;;;;;;4.03;2.17;;;;;;;11.97;100.00;101545.88;10300412;22;20052;-68
2022/05/12 04:18:00;;;;;;;4.97;2.88;;;;;;;11.69;100.00;101553.34;10195274;28;20058;-67
2022/05/12 04:23:02;;;;;;;3.60;2.00;;;;;;;12.03;100.00;101542.94;10194162;29;20510;-68
2022/05/12 04:28:05;;;;;;;6.70;2.42;;;;;;;12.01;100.00;101543.03;10210871;29;20052;-67
2022/05/12 04:38:28;;;;;;;7.35;3.13;;;;;;;11.80;100.00;101571.19;10209707;29;20052;-67
2022/05/12 04:43:30;;;;;;;3.63;2.30;;;;;;;11.94;100.00;101573.13;10210494;28;20058;-67
2022/05/12 04:48:33;;;;;;;7.95;2.63;;;;;;;12.10;100.00;101580.22;10210543;28;20062;-67
2022/05/12 04:53:36;;;;;;;10.30;3.15;;;;;;;11.96;100.00;101591.44;10209661;29;20070;-68
2022/05/12 04:58:38;;;;;;;7.32;3.28;;;;;;;12.16;100.00;101586.00;10209982;29;20510;-67
2022/05/12 05:03:42;;;;;;;8.10;3.63;;;;;;;12.47;100.00;101597.53;10209347;29;20491;-68
2022/05/12 05:08:44;;;;;;;10.30;4.32;;;;;;;12.41;100.00;101598.72;10209726;28;20060;-68
2022/05/12 05:13:47;;;;;;;10.88;3.83;;;;;;;12.16;100.00;101603.56;10208635;28;20070;-67
2022/05/12 05:18:49;;;;;;;10.43;3.72;;;;;;;12.35;100.00;101612.16;10209152;29;20414;-67
2022/05/12 05:23:51;;;;;;;11.63;4.35;;;;;;;12.14;100.00;101632.50;10209454;29;20051;-68
2022/05/12 05:28:53;;;;;;;12.23;4.80;;;;;;;12.19;100.00;101637.53;10208872;28;20059;-68
2022/05/12 05:33:56;;;;;;;9.35;4.07;;;;;;;12.33;100.00;101640.28;10208898;29;20052;-68
2022/05/12 05:38:58;;;;;;;16.42;5.28;;;;;;;12.14;100.00;101656.13;10207940;28;20052;-68
2022/05/12 05:44:00;;;;;;;16.58;6.47;;;;;;;12.25;100.00;101655.56;10208887;28;20048;-67
2022/05/12 05:49:03;;;;;;;10.45;4.75;;;;;;;12.59;100.00;101662.59;10209613;28;20051;-67
2022/05/12 05:54:05;;;;;;;15.90;6.55;;;;;;;12.49;100.00;101671.88;10214253;28;20056;-68
2022/05/12 05:59:08;;;;;;;12.65;6.70;;;;;;;12.51;100.00;101687.53;10215667;28;20067;-68
2022/05/12 06:04:10;;;;;;;13.20;6.65;;;;;;;12.77;100.00;101689.66;10214846;28;20406;-67
2022/05/12 06:09:13;;;;;;;18.60;7.07;;;;;;;13.03;100.00;101697.97;10214477;28;20503;-67
2022/05/12 06:14:15;;;;;;;17.17;6.47;;;;;;;12.97;100.00;101709.63;10214303;28;20056;-67
2022/05/12 06:19:17;;;;;;;17.42;6.63;;;;;;;13.20;100.00;101704.94;10215050;29;20064;-67
2022/05/12 06:24:20;;;;;;;14.13;6.47;;;;;;;13.26;100.00;101712.47;10214950;29;20059;-67
2022/05/12 06:29:22;;;;;;;12.45;5.28;;;;;;;13.48;100.00;101719.22;10214394;29;20048;-70
2022/05/12 06:34:24;;;;;;;11.02;6.45;;;;;;;14.24;91.63;101729.88;10213916;28;20055;-71
2022/05/12 06:39:27;;;;;;;16.17;5.68;;;;;;;14.29;88.58;101733.06;10213872;29;20044;-71
2022/05/12 06:44:29;;;;;;;12.73;6.70;;;;;;;13.88;93.57;101740.69;10214269;29;20048;-70
2022/05/12 06:49:32;;;;;;;10.40;5.97;;;;;;;14.44;88.31;101751.53;10197546;29;20066;-70
2022/05/12 06:54:35;;;;;;;13.23;5.90;;;;;;;14.55;87.76;101743.84;10212870;29;20059;-70
2022/05/12 06:59:39;;;;;;;11.95;6.28;;;;;;;14.53;93.07;101752.81;10212513;28;20056;-71
2022/05/12 07:04:42;;;;;;;7.88;5.97;;;;;;;14.91;85.74;101744.41;10211703;28;20487;-70
2022/05/12 07:09:44;;;;;;;12.75;5.85;;;;;;;15.60;80.84;101750.69;10211862;29;20048;-72
2022/05/12 07:14:52;;;;;;;15.80;6.53;;;;;;;15.92;84.50;101758.34;10205361;29;20134;-72
2022/05/12 07:36:10;;;;;;;12.50;6.15;;;;;;;17.08;78.22;101773.53;10211373;29;20449;-71
2022/05/12 07:41:14;;;;;;;10.75;4.40;;;;;;;17.08;72.22;101784.13;10211647;28;20062;-71
2022/05/12 07:46:18;;;;;;;8.50;3.80;;;;;;;16.97;67.86;101788.47;10211733;28;20498;-71
2022/05/12 07:51:21;;;;;;;9.23;4.40;;;;;;;16.85;66.63;101787.50;10211125;28;20130;-72
2022/05/12 07:56:26;;;;;;;7.85;3.90;;;;;;;17.27;66.97;101782.84;10210256;28;20497;-72
2022/05/12 08:01:28;;;;;;;6.40;3.83;;;;;;;17.93;65.64;101782.59;10210862;28;20130;-72
2022/05/12 08:06:31;;;;;;;6.55;3.30;;;;;;;18.56;62.96;101788.53;10211496;28;20560;-72
2022/05/12 08:11:33;;;;;;;8.63;4.07;;;;;;;17.40;64.12;101807.50;10211249;29;20064;-72
2022/05/12 08:16:36;;;;;;;7.20;3.88;;;;;;;18.87;62.36;101808.28;10210812;28;20059;-71
2022/05/12 08:21:38;;;;;;;9.27;4.30;;;;;;;19.06;59.13;101814.81;10211393;28;20052;-72
2022/05/12 08:26:42;;;;;;;6.75;3.72;;;;;;;18.85;59.13;101817.34;10210533;28;20074;-71
2022/05/12 08:31:45;;;;;;;6.53;3.75;;;;;;;17.96;61.36;101816.81;10210876;28;20052;-71
2022/05/12 08:36:49;;;;;;;9.65;3.88;;;;;;;17.37;63.45;101809.50;10208989;28;20070;-71
2022/05/12 08:42:15;;;;;;;9.35;3.40;;;;;;;18.56;58.94;101817.72;10210734;28;20055;-71
2022/05/12 08:47:28;;;;;;;10.73;3.80;;;;;;;18.94;56.76;101814.78;10209441;28;20054;-71
2022/05/12 08:52:40;;;;;;;6.13;3.50;;;;;;;20.01;53.44;101804.66;10209465;28;20125;-71
2022/05/12 08:58:03;;;;;;;7.40;3.42;;;;;;;19.61;55.44;101818.44;10210687;29;20048;-71
2022/05/12 09:03:34;;;;;;;6.47;3.55;;;;;;;21.12;51.01;101810.53;10208684;29;20062;-71
2022/05/12 09:08:54;;;;;;;5.65;2.53;;;;;;;18.90;55.13;101821.31;10209466;28;20043;-71
2022/05/12 09:13:59;;;;;;;5.53;2.47;;;;;;;19.28;53.61;101825.47;10191405;29;20062;-71
2022/05/12 09:19:02;;;;;;;8.27;2.95;;;;;;;19.84;52.98;101821.13;10207839;28;20499;-71
2022/05/12 09:24:07;;;;;;;3.97;2.42;;;;;;;20.50;49.41;101826.34;10207489;28;20048;-70
2022/05/12 09:29:18;;;;;;;6.70;3.30;;;;;;;21.42;49.23;101838.97;10208092;28;20134;-71
2022/05/12 09:34:26;;;;;;;5.20;2.78;;;;;;;21.38;52.04;101831.38;10208350;28;20047;-70
2022/05/12 09:39:40;;;;;;;5.32;2.55;;;;;;;21.31;48.12;101823.09;10208181;28;20059;-71
2022/05/12 09:44:56;;;;;;;5.15;2.40;;;;;;;23.03;46.20;101813.84;10235211;29;20044;-71
2022/05/12 09:50:20;;;;;;;6.80;3.05;;;;;;;21.74;48.35;101799.81;10232035;28;20047;-71
2022/05/12 09:55:27;;;;;;;8.27;2.85;;;;;;;20.55;51.37;101821.47;10206031;29;20130;-70
2022/05/12 10:00:48;;;;;;;5.30;2.15;;;;;;;20.69;49.70;101820.34;10207380;28;20494;-70
2022/05/12 10:11:24;;;;;;;2.88;1.92;;;;;;;22.94;44.13;101810.25;10201203;29;20067;-70
2022/05/12 10:16:30;;;;;;;3.17;1.80;;;;;;;21.74;45.34;101807.81;10199464;28;20495;-71
2022/05/12 10:21:45;;;;;;;4.20;1.80;;;;;;;22.05;45.53;101811.25;10181788;28;20134;-70
2022/05/12 10:26:51;;;;;;;3.90;1.52;;;;;;;22.91;46.30;101814.03;10200312;28;20056;-71
2022/05/12 10:32:25;;;;;;;5.00;1.35;;;;;;;21.77;43.99;101818.22;10199230;29;20448;-69
2022/05/12 10:37:56;;;;;;;3.33;1.80;;;;;;;20.11;45.80;101815.38;10205584;29;20048;-70
2022/05/12 10:43:20;;;;;;;5.72;1.45;;;;;;;21.17;44.31;101828.78;10206272;28;20059;-70
2022/05/12 10:48:28;;;;;;;2.17;1.00;;;;;;;19.67;46.94;101814.47;10207404;29;20066;-69
2022/05/12 10:53:50;;;;;;;5.80;1.67;;;;;;;21.26;47.12;101825.31;10206669;28;20407;-70
2022/05/12 10:59:14;;;;;;;3.92;1.48;;;;;;;21.35;43.24;101819.19;10190046;28;20055;-69
2022/05/12 11:04:22;;;;;;;1.90;1.15;;;;;;;23.19;43.05;101811.47;10206854;28;20052;-70
2022/05/12 11:09:37;;;;;;;3.33;1.42;;;;;;;22.51;41.85;101798.22;10205464;28;20073;-68
2022/05/12 11:14:44;;;;;;;4.97;1.42;;;;;;;23.00;42.92;101796.31;10205978;29;20063;-69
2022/05/12 11:19:57;;;;;;;7.30;1.80;;;;;;;20.97;42.60;101807.38;10202026;29;20074;-70
2022/05/12 11:25:08;;;;;;;4.38;1.20;;;;;;;23.49;41.62;101799.66;10202544;28;20067;-71
2022/05/12 11:30:31;;;;;;;4.10;1.00;;;;;;;20.41;44.04;101800.53;10200251;29;20392;-71
2022/05/12 11:35:43;;;;;;;4.47;1.15;;;;;;;22.72;42.75;101790.06;10204088;28;20392;-70
2022/05/12 11:40:51;;;;;;;2.72;1.60;;;;;;;22.41;39.83;101791.09;10204552;28;20056;-70
2022/05/12 11:46:21;;;;;;;4.70;1.25;;;;;;;22.64;39.75;101796.09;10205760;28;20079;-70
2022/05/12 11:51:23;;;;;;;2.08;0.85;;;;;;;22.23;40.17;101795.41;10205016;28;20060;-70
2022/05/12 11:56:43;;;;;;;2.65;1.05;;;;;;;22.47;41.99;101787.00;10205308;28;20056;-70
2022/05/12 12:01:51;;;;;;;3.28;1.27;;;;;;;22.72;39.38;101790.88;10204408;28;20056;-69
2022/05/12 12:06:54;;;;;;;2.67;1.10;;;;;;;23.98;37.62;101780.66;10211334;28;20487;-69
2022/05/12 12:11:57;;;;;;;3.53;1.23;;;;;;;21.05;41.76;101785.41;10209798;29;20060;-68
2022/05/12 12:17:05;;;;;;;5.90;1.40;;;;;;;22.42;41.52;101784.75;10211502;29;20052;-68
2022/05/12 12:22:24;;;;;;;6.40;1.70;;;;;;;22.93;39.36;101780.03;10210208;29;20048;-68
2022/05/12 12:27:53;;;;;;;2.33;1.20;;;;;;;22.26;40.41;101784.47;10209399;28;20407;-68
2022/05/12 12:33:20;;;;;;;4.47;1.13;;;;;;;24.69;38.29;101776.22;10201097;29;20414;-68
2022/05/12 12:38:44;;;;;;;4.97;1.60;;;;;;;22.85;39.61;101781.72;10209222;28;20075;-69
2022/05/12 12:43:57;;;;;;;5.75;1.60;;;;;;;22.63;40.73;101789.09;10225442;28;20083;-69
2022/05/12 12:49:24;;;;;;;4.55;1.60;;;;;;;22.49;39.70;101782.34;10209946;28;20110;-68
2022/05/12 13:00:00;;;;;;;3.20;1.20;;;;;;;25.33;35.88;101762.53;10207004;29;20094;-68
2022/05/12 13:05:10;;;;;;;2.15;1.48;;;;;;;25.53;35.44;101761.25;10207757;28;20054;-68
2022/05/12 13:10:16;;;;;;;8.82;1.88;;;;;;;22.68;38.07;101759.28;10210056;29;20059;-68
2022/05/12 13:15:20;;;;;;;6.35;1.80;;;;;;;22.03;41.03;101758.06;10209326;28;20051;-68
2022/05/12 13:20:26;;;;;;;4.88;1.48;;;;;;;22.72;40.10;101758.03;10209128;28;20051;-68
2022/05/12 13:25:31;;;;;;;4.78;1.77;;;;;;;22.59;39.53;101753.00;10206613;28;20054;-67
2022/05/12 13:30:43;;;;;;;4.32;1.63;;;;;;;23.60;39.98;101741.63;10190666;29;20517;-68
2022/05/12 13:36:01;;;;;;;4.22;1.35;;;;;;;23.80;38.12;101753.88;10207374;29;20074;-68
2022/05/12 13:41:09;;;;;;;5.63;2.03;;;;;;;21.91;39.67;101740.53;10207434;28;20562;-67
2022/05/12 13:46:14;;;;;;;11.57;2.53;;;;;;;24.34;36.20;101735.13;10208988;28;20138;-66
2022/05/12 13:51:40;;;;;;;6.50;1.70;;;;;;;23.08;37.04;101742.19;10207514;28;20388;-65
2022/05/12 13:57:19;;;;;;;;;;;;;;;23.56;35.84;101733.91;10207352;29;20073;-65
2022/05/12 14:02:32;;;;;;;12.43;1.30;;;;;;;22.35;40.86;101729.44;10202443;29;19931;-66
2022/05/12 14:07:35;;;;;;;11.55;1.52;;;;;;;23.80;37.63;101713.75;10203483;29;20470;-64
2022/05/12 14:19:13;;;;;;;5.40;0.95;;;;;;;22.76;38.90;101717.56;10211961;29;20395;-65
2022/05/12 14:23:20;;;;;;;;;;;;;;;23.27;38.00;101714.56;10215472;29;20056;-74
2022/05/12 14:28:22;;;;;;;5.30;1.63;;;;;;;22.01;39.93;101716.53;10213472;28;20378;-73
2022/05/12 14:33:25;;;;;;;6.82;1.20;;;;;;;21.72;39.27;101712.03;10212642;28;20513;-72
2022/05/12 14:38:27;;;;;;;7.20;1.52;;;;;;;24.36;36.65;101702.88;10213303;28;20059;-71
2022/05/12 14:43:29;;;;;;;7.20;2.22;;;;;;;22.56;36.25;101702.56;10213043;28;20487;-71
2022/05/12 14:48:32;;;;;;;10.13;2.25;;;;;;;22.68;35.24;101696.09;10212888;29;20504;-73
2022/05/12 14:53:36;;;;;;;16.73;3.45;;;;;;;23.30;37.86;101679.50;10212549;29;20051;-72
2022/05/12 14:58:39;;;;;;;3.30;1.52;;;;;;;22.43;38.46;101682.38;10212596;28;20052;-72
2022/05/12 15:03:42;;;;;;;3.75;1.35;;;;;;;24.39;36.27;101683.81;10211984;29;20384;-73
2022/05/12 15:08:44;;;;;;;6.82;1.35;;;;;;;25.01;36.01;101684.50;10212387;29;20051;-73
2022/05/12 15:13:47;;;;;;;4.63;1.88;;;;;;;23.37;38.33;101691.28;10211691;28;20071;-73
2022/05/12 15:18:52;;;;;;;2.03;1.30;;;;;;;22.12;37.42;101675.53;10213203;28;20058;-73
2022/05/12 15:23:55;;;;;;;6.78;1.40;;;;;;;23.52;38.75;101676.41;10210669;28;20054;-73
2022/05/12 15:28:57;;;;;;;2.85;1.55;;;;;;;22.36;37.76;101667.09;10212400;29;20077;-73
2022/05/12 15:33:59;;;;;;;5.38;1.90;;;;;;;23.13;37.48;101668.66;10211753;28;20047;-73
2022/05/12 15:39:04;;;;;;;3.33;1.60;;;;;;;24.35;35.58;101669.09;10211479;29;20070;-73
2022/05/12 15:44:09;;;;;;;4.30;1.60;;;;;;;22.89;37.89;101660.31;10211491;28;20054;-73
2022/05/12 15:49:28;;;;;;;7.20;1.75;;;;;;;22.51;39.18;101671.00;10210810;28;20054;-72
2022/05/12 15:54:31;;;;;;;3.17;1.40;;;;;;;22.03;38.96;101659.41;10209332;28;20541;-72
2022/05/12 15:59:33;;;;;;;1.73;1.58;;;;;;;22.34;39.45;101647.72;10209866;29;20403;-73
2022/05/12 16:04:36;;;;;;;2.65;1.75;;;;;;;22.01;39.80;101657.88;10211977;28;20047;-72
2022/05/12 16:09:39;;;;;;;3.97;1.65;;;;;;;22.41;39.22;101655.03;10211050;28;20044;-73
2022/05/12 16:14:48;;;;;;;3.80;1.48;;;;;;;22.08;39.44;101658.97;10211246;28;20067;-73
2022/05/12 16:19:50;;;;;;;4.47;2.00;;;;;;;21.92;39.91;101653.38;10210450;28;20498;-72
2022/05/12 16:24:53;;;;;;;3.60;1.85;;;;;;;21.17;41.22;101648.53;10209964;28;20062;-72
2022/05/12 16:29:55;;;;;;;4.45;1.90;;;;;;;21.94;40.76;101638.94;10254851;22;20387;-71
2022/05/12 16:34:58;;;;;;;4.53;2.17;;;;;;;22.39;40.34;101626.78;10249305;28;20051;-71
2022/05/12 16:40:05;;;;;;;4.28;1.88;;;;;;;21.82;39.80;101632.06;10264185;28;20055;-71
2022/05/12 16:45:08;;;;;;;6.47;2.35;;;;;;;20.67;42.87;101625.41;10246636;28;20047;-71
2022/05/12 16:50:13;;;;;;;4.97;2.00;;;;;;;20.75;43.00;101624.75;10249558;29;20047;-71
2022/05/12 16:55:16;;;;;;;9.10;2.60;;;;;;;20.97;41.20;101621.84;10249482;28;20059;-71
2022/05/12 17:00:21;;;;;;;2.83;1.67;;;;;;;20.65;42.09;101622.03;10248693;29;20051;-71
2022/05/12 17:05:24;;;;;;;5.15;1.90;;;;;;;20.49;43.40;101606.53;10246959;28;20051;-71
2022/05/12 17:10:27;;;;;;;4.50;2.15;;;;;;;20.23;43.61;101606.13;10248797;29;20051;-71
2022/05/12 17:15:29;;;;;;;6.68;2.47;;;;;;;21.07;42.73;101613.91;10247944;29;20049;-71
2022/05/12 17:20:31;;;;;;;4.15;2.25;;;;;;;20.53;44.48;101610.63;10247937;29;20051;-71
2022/05/12 17:25:34;;;;;;;5.45;3.15;;;;;;;20.58;43.69;101610.22;10248132;29;20043;-70
2022/05/12 17:30:36;;;;;;;5.03;2.83;;;;;;;19.73;45.17;101619.19;10248436;29;20070;-71
2022/05/12 17:35:38;;;;;;;5.30;2.28;;;;;;;20.40;46.03;101617.97;10247744;29;20055;-74
2022/05/12 17:40:42;;;;;;;4.47;2.17;;;;;;;19.31;46.13;101627.91;10247272;28;20495;-71
2022/05/12 17:45:46;;;;;;;4.32;1.90;;;;;;;19.54;46.31;101633.16;10246932;28;20087;-71
2022/05/12 17:50:50;;;;;;;4.10;2.20;;;;;;;19.57;46.29;101628.44;10246453;28;20047;-71
2022/05/12 17:55:53;;;;;;;9.25;2.20;;;;;;;20.01;46.18;101636.34;10248144;28;20050;-71
2022/05/12 18:00:57;;;;;;;9.55;3.42;;;;;;;19.80;46.02;101639.84;10248180;28;20058;-71
2022/05/12 18:06:00;;;;;;;5.32;2.05;;;;;;;19.44;47.44;101636.56;10247308;29;20134;-71
2022/05/12 18:11:02;;;;;;;4.90;2.58;;;;;;;19.08;49.22;101654.50;10246841;29;20047;-71
2022/05/12 18:16:06;;;;;;;5.60;2.00;;;;;;;18.37;51.63;101656.50;10246375;29;20090;-70
2022/05/12 18:21:08;;;;;;;4.53;2.13;;;;;;;18.40;52.71;101647.47;10247449;29;20055;-71
2022/05/12 18:26:11;;;;;;;7.85;2.78;;;;;;;17.80;54.20;101658.09;10246407;28;20074;-71
2022/05/12 18:31:14;;;;;;;6.75;2.53;;;;;;;17.55;55.99;101662.59;10245658;28;20056;-71
2022/05/12 18:36:16;;;;;;;7.50;2.60;;;;;;;17.42;57.06;101665.28;10246858;29;20093;-70
2022/05/12 18:41:19;;;;;;;10.25;3.17;;;;;;;17.30;57.87;101682.06;10247004;29;20073;-70
2022/05/12 18:46:22;;;;;;;7.45;2.55;;;;;;;16.70;58.07;101671.19;10246942;28;20047;-70
2022/05/12 18:51:26;;;;;;;3.95;2.17;;;;;;;16.93;57.86;101684.66;10246461;28;20131;-70
2022/05/12 18:56:28;;;;;;;6.10;2.03;;;;;;;16.72;57.51;101689.59;10244032;28;20050;-70
2022/05/12 19:01:31;;;;;;;3.95;1.63;;;;;;;16.65;57.40;101691.81;10252935;29;20406;-70
2022/05/12 19:06:34;;;;;;;5.63;2.08;;;;;;;16.44;58.51;101704.72;10251029;29;20043;-70
2022/05/12 19:11:37;;;;;;;8.85;1.75;;;;;;;16.54;56.00;101702.28;10251750;29;20055;-71
2022/05/12 19:16:39;;;;;;;4.95;1.15;;;;;;;16.23;56.58;101712.28;10251491;28;20406;-70
2022/05/12 19:21:42;;;;;;;7.32;1.17;;;;;;;16.04;56.56;101715.31;10252930;28;20131;-70
2022/05/12 19:26:44;;;;;;;3.20;0.90;;;;;;;16.32;57.23;101716.09;10251136;29;20494;-70
2022/05/12 19:31:47;;;;;;;5.68;1.40;;;;;;;16.17;56.61;101717.97;10252462;28;20074;-70
2022/05/12 19:36:50;;;;;;;2.22;0.98;;;;;;;16.10;56.53;101728.09;10251450;29;20044;-70
2022/05/12 19:41:52;;;;;;;5.53;1.10;;;;;;;15.84;57.70;101740.38;10251607;28;20486;-70
2022/05/12 19:46:54;;;;;;;3.97;1.30;;;;;;;15.78;57.81;101735.50;10251686;29;20097;-70
2022/05/12 19:51:57;;;;;;;3.63;1.15;;;;;;;15.61;58.45;101739.19;10251961;29;20062;-70
2022/05/12 19:56:59;;;;;;;3.90;1.10;;;;;;;15.57;59.27;101741.19;10250842;28;20074;-70
2022/05/12 20:02:02;;;;;;;3.65;1.08;;;;;;;15.50;59.10;101746.94;10251013;29;20403;-70
2022/05/12 20:07:04;;;;;;;7.07;1.55;;;;;;;15.75;59.08;101743.56;10250812;28;20154;-70
2022/05/12 20:12:08;;;;;;;2.67;1.63;;;;;;;15.53;58.98;101747.59;10251119;29;20061;-70
2022/05/12 20:17:10;;;;;;;9.75;1.25;;;;;;;15.32;61.09;101748.94;10249330;28;20058;-70
2022/05/12 20:22:18;;;;;;;2.92;1.00;;;;;;;15.07;62.34;101745.19;10249202;29;20073;-70
2022/05/12 20:27:20;;;;;;;3.75;1.60;;;;;;;15.06;61.55;101756.66;10249191;28;20055;-70
2022/05/12 20:32:24;;;;;;;6.97;1.65;;;;;;;14.89;62.88;101756.84;10250171;29;20482;-70
2022/05/12 20:37:27;;;;;;;3.75;1.15;;;;;;;14.74;62.90;101751.53;10233730;28;20058;-70
2022/05/12 20:42:30;;;;;;;2.72;1.30;;;;;;;14.56;64.98;101760.50;10249745;29;20063;-70
2022/05/12 20:47:34;;;;;;;7.82;1.40;;;;;;;14.23;65.42;101765.03;10248670;29;20486;-70
2022/05/12 20:52:36;;;;;;;4.05;0.93;;;;;;;14.50;65.55;101767.00;10249635;28;20087;-69
2022/05/12 20:57:39;;;;;;;4.50;1.20;;;;;;;14.16;67.91;101768.13;10248497;28;20070;-70
2022/05/12 21:02:42;;;;;;;5.22;1.48;;;;;;;14.11;67.12;101771.00;10249128;28;20051;-69
2022/05/12 21:07:45;;;;;;;4.05;1.20;;;;;;;13.81;68.36;101777.03;10249060;28;20449;-69
2022/05/12 21:12:47;;;;;;;5.10;1.58;;;;;;;13.82;69.38;101780.53;10248231;28;20059;-70
2022/05/12 21:17:49;;;;;;;7.57;1.13;;;;;;;13.48;70.48;101777.97;10248952;29;20047;-69
2022/05/12 21:22:52;;;;;;;5.07;1.40;;;;;;;13.33;71.94;101781.41;10247892;28;20513;-70
2022/05/12 21:27:54;;;;;;;4.45;1.20;;;;;;;13.45;69.42;101788.66;10248514;29;20058;-70
2022/05/12 21:32:59;;;;;;;2.10;1.00;;;;;;;13.42;69.16;101783.56;10248904;28;20058;-69
2022/05/12 21:38:04;;;;;;;7.97;0.90;;;;;;;13.59;67.48;101784.44;10248543;28;20059;-69
2022/05/12 21:43:07;;;;;;;4.80;0.90;;;;;;;13.34;67.15;101783.97;10247917;28;20059;-69
2022/05/12 21:48:17;;;;;;;3.72;1.30;;;;;;;13.16;65.75;101779.63;10248538;28;20079;-69
2022/05/12 21:53:22;;;;;;;5.38;2.25;;;;;;;13.51;64.78;101779.56;10248752;28;20055;-69
2022/05/12 22:03:46;;;;;;;5.25;1.17;;;;;;;13.47;65.37;101776.28;10247417;28;20047;-69
2022/05/12 22:08:50;;;;;;;1.60;0.88;;;;;;;13.55;65.12;101765.34;10246587;28;20054;-69
2022/05/12 22:13:52;;;;;;;4.95;1.17;;;;;;;13.36;65.90;101763.72;10247690;29;20052;-69
2022/05/12 22:18:54;;;;;;;4.65;1.08;;;;;;;12.91;69.04;101764.28;10247631;29;20054;-69
2022/05/12 22:23:57;;;;;;;2.78;1.20;;;;;;;12.53;71.23;101764.50;10247473;29;20055;-69
2022/05/12 22:28:59;;;;;;;7.88;1.35;;;;;;;12.71;71.65;101768.81;10246774;29;20048;-69
2022/05/12 22:34:02;;;;;;;3.15;0.90;;;;;;;12.39;72.88;101760.78;10251689;28;20513;-69
2022/05/12 22:39:04;;;;;;;3.08;1.05;;;;;;;12.23;74.65;101768.53;10236552;29;20048;-69
2022/05/12 22:44:07;;;;;;;6.20;1.42;;;;;;;12.72;71.10;101764.41;10253861;29;20055;-69
2022/05/12 22:49:10;;;;;;;4.03;1.42;;;;;;;12.33;73.31;101760.22;10251970;28;20078;-69
2022/05/12 22:54:12;;;;;;;6.38;1.50;;;;;;;12.39;72.60;101762.53;10252390;28;20058;-68
2022/05/12 22:59:15;;;;;;;6.10;1.70;;;;;;;12.33;72.48;101747.09;10253297;29;20051;-69
2022/05/12 23:04:17;;;;;;;6.55;1.77;;;;;;;12.42;71.80;101755.38;10253491;29;20058;-69
2022/05/12 23:09:19;;;;;;;3.72;1.40;;;;;;;12.01;74.98;101749.53;10253044;29;20093;-69
2022/05/12 23:14:22;;;;;;;5.20;1.15;;;;;;;12.21;72.78;101745.94;10252402;29;20501;-68
2022/05/12 23:24:45;;;;;;;4.40;1.35;;;;;;;12.12;74.65;101754.25;10252115;28;20414;-68
2022/05/12 23:29:48;;;;;;;5.57;1.48;;;;;;;12.25;72.50;101736.97;10251742;29;20410;-68
2022/05/12 23:34:50;;;;;;;4.07;1.55;;;;;;;12.08;73.78;101741.25;10251076;28;20047;-69
2022/05/12 23:40:13;;;;;;;3.08;1.40;;;;;;;12.41;72.09;101737.06;10251621;29;20047;-69
2022/05/12 23:45:16;;;;;;;4.32;1.08;;;;;;;12.31;72.21;101733.19;10251044;29;20047;-68
2022/05/12 23:50:18;;;;;;;4.78;1.33;;;;;;;11.84;73.74;101739.81;10251826;29;20047;-68
2022/05/12 23:55:20;;;;;;;4.50;1.45;;;;;;;12.12;72.54;101733.25;10251477;29;20054;-68
